Time;durP1;ratioP1;P1;durP2;ratioP2;P2;SDS_P1;SDS_P2;PMS_P1;PMS_P2;Temp;Humidity;BMP_temperature;BMP_pressure;BME280_temperature;BME280_humidity;BME280_pressure;Samples;Min_cycle;Max_cycle;Signal;HPM_P1;HPM_P2
2022/04/05 00:02:35;;;;;;;22.45;7.30;;;;;;;4.73;57.48;97366.05;2274326;78;20997;-60
2022/04/05 00:05:37;;;;;;;22.77;8.00;;;;;;;4.69;59.34;97322.05;2233826;79;20984;-60
2022/04/05 00:08:38;;;;;;;24.27;7.92;;;;;;;4.43;61.79;97340.52;2238552;79;21294;-60
2022/04/05 00:11:39;;;;;;;23.15;7.33;;;;;;;4.27;63.44;97335.88;2235886;79;20965;-60
2022/04/05 00:14:41;;;;;;;23.57;8.30;;;;;;;4.20;64.35;97337.98;2239408;79;20993;-60
2022/04/05 00:17:42;;;;;;;22.98;8.25;;;;;;;4.12;66.00;97351.42;2244083;79;21515;-60
2022/04/05 00:20:44;;;;;;;24.92;8.83;;;;;;;4.02;67.41;97356.75;2240112;79;21008;-60
2022/04/05 00:23:45;;;;;;;24.30;8.88;;;;;;;3.79;69.53;97355.04;2243398;78;21058;-60
2022/04/05 00:26:46;;;;;;;24.87;9.33;;;;;;;3.53;72.24;97358.25;2236299;79;20996;-61
2022/04/05 00:29:48;;;;;;;24.85;9.70;;;;;;;3.44;73.81;97344.88;2236627;79;21082;-60
2022/04/05 00:32:50;;;;;;;25.25;10.58;;;;;;;3.42;74.58;97359.69;2232240;79;20987;-60
2022/04/05 00:35:52;;;;;;;30.57;10.50;;;;;;;3.31;75.64;97358.15;2239784;79;21082;-60
2022/04/05 00:38:53;;;;;;;27.45;10.45;;;;;;;3.27;74.41;97335.44;2243794;78;21000;-59
2022/04/05 00:41:55;;;;;;;29.30;11.75;;;;;;;3.16;76.19;97324.86;2242643;79;20983;-60
2022/04/05 00:44:56;;;;;;;26.42;10.68;;;;;;;3.14;73.86;97325.85;2247928;79;21083;-60
2022/04/05 00:47:59;;;;;;;30.40;12.45;;;;;;;3.29;75.47;97325.84;2245147;79;21001;-60
2022/04/05 00:51:00;;;;;;;;;;;;;;;3.38;74.50;97318.48;2239444;79;21053;-61
2022/04/05 00:54:02;;;;;;;27.35;11.08;;;;;;;3.36;74.15;97304.75;2238485;79;20103;-61
2022/04/05 00:57:03;;;;;;;27.70;10.93;;;;;;;3.23;76.14;97304.60;2284607;77;21487;-61
2022/04/05 01:00:05;;;;;;;24.70;10.20;;;;;;;3.25;78.87;97288.05;2285229;77;21028;-59
2022/04/05 01:03:06;;;;;;;29.67;11.83;;;;;;;3.23;79.13;97294.23;2283261;77;21107;-60
2022/04/05 01:06:08;;;;;;;26.93;11.90;;;;;;;3.20;77.29;97282.28;2281382;77;20958;-60
2022/04/05 01:09:09;;;;;;;31.45;13.72;;;;;;;3.07;82.83;97280.83;2283623;77;21036;-60
2022/04/05 01:12:11;;;;;;;28.23;12.50;;;;;;;3.08;82.02;97295.93;2287174;77;21038;-60
2022/04/05 01:15:13;;;;;;;29.85;13.85;;;;;;;3.21;78.85;97282.66;2286153;77;21044;-60
2022/04/05 01:18:14;;;;;;;27.82;11.97;;;;;;;3.29;78.97;97281.78;2286590;77;21041;-60
2022/04/05 01:21:16;;;;;;;27.57;11.33;;;;;;;3.17;84.12;97287.64;2242053;78;21000;-60
2022/04/05 01:24:17;;;;;;;29.02;12.40;;;;;;;3.21;83.82;97279.25;2241034;79;21304;-60
2022/04/05 01:27:19;;;;;;;26.70;11.83;;;;;;;3.26;83.14;97261.67;2247080;78;21043;-60
2022/04/05 01:30:21;;;;;;;28.62;12.70;;;;;;;3.28;83.18;97287.05;2243970;78;21035;-60
2022/04/05 01:33:22;;;;;;;28.00;12.93;;;;;;;3.25;80.47;97272.98;2241951;79;20992;-60
2022/04/05 01:36:24;;;;;;;29.18;13.80;;;;;;;3.26;80.31;97258.63;2243077;79;21534;-60
2022/04/05 01:39:25;;;;;;;27.40;12.58;;;;;;;3.27;81.37;97263.34;2237261;79;21032;-60
2022/04/05 01:42:27;;;;;;;29.63;12.70;;;;;;;3.26;84.20;97280.66;2239992;79;21482;-60
2022/04/05 01:45:28;;;;;;;29.90;13.32;;;;;;;3.05;86.97;97259.36;2240250;78;21498;-60
2022/04/05 01:48:30;;;;;;;26.83;12.60;;;;;;;3.23;84.09;97261.41;2232676;79;21001;-59
2022/04/05 01:51:31;;;;;;;26.80;11.93;;;;;;;3.13;84.62;97253.74;2241627;79;21440;-60
2022/04/05 01:54:32;;;;;;;26.10;12.28;;;;;;;3.18;84.75;97256.92;2239834;79;20993;-60
2022/04/05 01:57:34;;;;;;;26.82;12.20;;;;;;;3.14;86.17;97241.64;2247472;79;21031;-61
2022/04/05 02:00:36;;;;;;;26.52;11.73;;;;;;;3.14;86.52;97245.06;2239073;79;20966;-60
2022/04/05 02:03:38;;;;;;;27.48;12.03;;;;;;;3.09;86.31;97257.45;2246477;79;21021;-60
2022/04/05 02:06:39;;;;;;;22.95;9.28;;;;;;;3.14;87.81;97248.13;2242107;79;21074;-60
2022/04/05 02:09:41;;;;;;;26.57;12.65;;;;;;;3.05;89.84;97252.06;2243762;79;21020;-61
2022/04/05 02:12:42;;;;;;;26.02;11.75;;;;;;;3.02;87.72;97236.70;2245451;79;20983;-61
2022/04/05 02:15:44;;;;;;;27.27;12.78;;;;;;;3.03;90.01;97247.41;2245143;79;21563;-60
2022/04/05 02:18:45;;;;;;;25.75;12.60;;;;;;;3.07;87.07;97241.97;2231145;79;20986;-61
2022/04/05 02:21:46;;;;;;;27.25;12.45;;;;;;;3.00;90.59;97251.00;2245758;79;21496;-60
2022/04/05 02:24:48;;;;;;;26.23;12.13;;;;;;;2.98;93.10;97251.56;2239784;79;21020;-61
2022/04/05 02:27:49;;;;;;;26.85;12.58;;;;;;;3.05;89.25;97220.98;2246795;79;21523;-60
2022/04/05 02:30:51;;;;;;;25.90;10.60;;;;;;;3.09;90.72;97233.67;2236665;79;21012;-60
2022/04/05 02:33:52;;;;;;;28.25;13.50;;;;;;;3.00;94.40;97230.28;2247179;79;21003;-60
2022/04/05 02:36:54;;;;;;;27.95;12.00;;;;;;;3.11;91.36;97232.28;2232111;79;21495;-61
2022/04/05 02:39:55;;;;;;;26.45;12.20;;;;;;;3.21;90.13;97204.10;2236442;79;21118;-60
2022/04/05 02:42:57;;;;;;;29.42;13.03;;;;;;;3.25;91.14;97205.60;2234659;79;20987;-60
2022/04/05 02:45:58;;;;;;;27.37;12.80;;;;;;;3.22;90.04;97214.38;2241489;79;21629;-60
2022/04/05 02:49:00;;;;;;;29.57;12.85;;;;;;;3.33;88.90;97230.59;2234061;79;21028;-60
2022/04/05 02:52:01;;;;;;;27.20;12.85;;;;;;;3.21;90.17;97236.49;2241548;79;21471;-60
2022/04/05 02:55:03;;;;;;;28.83;13.68;;;;;;;3.25;91.11;97226.33;2240731;79;20997;-60
2022/04/05 02:58:05;;;;;;;26.85;12.50;;;;;;;3.34;88.23;97223.67;2246720;79;21522;-60
2022/04/05 03:01:06;;;;;;;26.05;12.43;;;;;;;3.44;88.73;97215.27;2237258;79;21031;-60
2022/04/05 03:04:08;;;;;;;29.42;13.40;;;;;;;3.46;88.56;97238.50;2224075;79;21048;-61
2022/04/05 03:07:09;;;;;;;25.30;11.47;;;;;;;3.32;90.99;97231.54;2240414;79;21000;-60
2022/04/05 03:10:11;;;;;;;27.50;12.60;;;;;;;3.34;90.70;97221.08;2243558;79;21656;-61
2022/04/05 03:13:12;;;;;;;25.65;11.80;;;;;;;3.45;90.49;97236.38;2238626;79;21001;-61
2022/04/05 03:16:14;;;;;;;27.90;13.00;;;;;;;3.50;90.78;97241.77;2249127;78;21068;-60
2022/04/05 03:19:15;;;;;;;26.90;12.40;;;;;;;3.06;95.93;97227.81;2237719;79;21582;-60
2022/04/05 03:22:17;;;;;;;25.08;11.22;;;;;;;3.01;97.33;97228.07;2243064;78;20961;-60
2022/04/05 03:25:18;;;;;;;27.52;12.80;;;;;;;3.21;96.75;97231.31;2243098;79;21482;-60
2022/04/05 03:28:20;;;;;;;25.52;10.60;;;;;;;3.28;94.96;97238.64;2240680;79;20993;-60
2022/04/05 03:31:22;;;;;;;26.85;12.30;;;;;;;3.30;94.76;97216.52;2240092;79;21535;-60
2022/04/05 03:34:23;;;;;;;25.20;11.30;;;;;;;3.40;94.08;97235.80;2236879;79;21035;-60
2022/04/05 03:37:25;;;;;;;27.27;12.70;;;;;;;3.37;93.78;97215.25;2224973;79;21550;-60
2022/04/05 03:40:27;;;;;;;26.68;11.60;;;;;;;3.45;92.94;97209.64;2240854;79;21079;-60
2022/04/05 03:43:29;;;;;;;28.52;13.30;;;;;;;3.46;93.67;97231.58;2236924;79;21027;-60
2022/04/05 03:46:30;;;;;;;27.25;11.15;;;;;;;3.57;92.58;97230.95;2241484;79;20989;-60
2022/04/05 03:49:32;;;;;;;28.75;13.62;;;;;;;3.54;92.87;97206.97;2242144;79;21495;-60
2022/04/05 03:52:33;;;;;;;28.20;13.20;;;;;;;3.54;91.00;97205.67;2282153;77;20985;-60
2022/04/05 03:55:35;;;;;;;26.75;12.13;;;;;;;3.53;92.21;97202.70;2280660;77;20988;-60
2022/04/05 03:58:37;;;;;;;27.35;11.90;;;;;;;3.63;91.77;97193.45;2284385;77;21060;-60
2022/04/05 04:01:38;;;;;;;27.32;12.55;;;;;;;3.73;90.71;97197.17;2280095;77;20982;-60
2022/04/05 04:04:40;;;;;;;27.05;12.63;;;;;;;3.54;93.35;97222.05;2282353;77;21483;-59
2022/04/05 04:07:41;;;;;;;27.25;12.98;;;;;;;3.54;93.48;97217.34;2279792;77;20999;-59
2022/04/05 04:10:43;;;;;;;27.82;13.03;;;;;;;3.53;92.69;97189.73;2279536;77;21098;-60
2022/04/05 04:13:45;;;;;;;25.90;12.45;;;;;;;3.68;92.39;97212.63;2284395;77;20993;-60
2022/04/05 04:16:46;;;;;;;28.35;13.20;;;;;;;3.85;89.79;97202.11;2282976;77;21582;-60
2022/04/05 04:19:48;;;;;;;27.82;13.15;;;;;;;3.89;88.59;97189.78;2280948;77;20992;-60
2022/04/05 04:22:49;;;;;;;24.98;11.33;;;;;;;3.95;88.98;97218.80;2279656;77;20945;-60
2022/04/05 04:25:51;;;;;;;27.17;12.85;;;;;;;3.95;89.06;97205.82;2280633;77;20989;-60
2022/04/05 04:28:53;;;;;;;25.43;10.95;;;;;;;4.05;87.59;97216.48;2280953;77;20945;-60
2022/04/05 04:31:54;;;;;;;26.30;12.17;;;;;;;4.02;88.31;97211.45;2284867;77;20985;-60
2022/04/05 04:34:55;;;;;;;25.23;11.08;;;;;;;4.00;88.36;97210.73;2272566;78;21163;-60
2022/04/05 04:37:57;;;;;;;22.90;9.60;;;;;;;3.96;88.02;97206.17;2237735;79;21499;-60
2022/04/05 04:40:58;;;;;;;23.12;9.55;;;;;;;4.01;87.43;97194.69;2234408;78;20960;-60
2022/04/05 04:44:00;;;;;;;23.55;10.53;;;;;;;3.94;88.56;97236.57;2240856;79;21474;-59
2022/04/05 04:47:01;;;;;;;25.97;11.23;;;;;;;3.96;88.57;97233.88;2247288;78;20993;-60
2022/04/05 04:50:03;;;;;;;25.55;11.12;;;;;;;3.98;88.24;97234.17;2272994;77;21202;-60
2022/04/05 04:53:05;;;;;;;23.90;10.25;;;;;;;4.02;87.89;97224.91;2279526;77;21543;-59
2022/04/05 04:56:06;;;;;;;24.07;10.38;;;;;;;4.01;87.52;97227.97;2280847;77;20989;-60
2022/04/05 04:59:07;;;;;;;24.32;10.80;;;;;;;4.06;87.36;97234.17;2282528;77;20969;-60
2022/04/05 05:02:09;;;;;;;24.77;11.70;;;;;;;3.96;87.92;97233.41;2279065;77;20973;-60
2022/04/05 05:05:12;;;;;;;22.80;10.53;;;;;;;3.90;89.05;97232.48;2276813;77;21018;-59
2022/04/05 05:08:13;;;;;;;25.15;11.48;;;;;;;3.88;89.25;97233.50;2286296;77;20980;-60
2022/04/05 05:11:16;;;;;;;24.27;10.17;;;;;;;3.98;87.36;97221.67;2281178;77;21534;-60
2022/04/05 05:14:18;;;;;;;26.07;11.28;;;;;;;3.98;88.91;97236.77;2279663;77;21026;-60
2022/04/05 05:17:19;;;;;;;21.85;8.83;;;;;;;4.12;87.28;97231.20;2286138;77;21028;-59
2022/04/05 05:20:21;;;;;;;26.82;11.73;;;;;;;4.11;87.37;97220.00;2280316;77;20970;-60
2022/04/05 05:23:23;;;;;;;23.50;10.10;;;;;;;4.08;87.86;97240.95;2280248;77;21027;-60
2022/04/05 05:26:24;;;;;;;25.43;11.45;;;;;;;4.08;88.30;97240.95;2281361;77;21216;-60
2022/04/05 05:29:26;;;;;;;26.73;12.13;;;;;;;4.07;88.34;97242.34;2281431;77;21515;-59
2022/04/05 05:32:27;;;;;;;27.02;10.85;;;;;;;4.09;87.22;97218.41;2281737;77;21248;-59
2022/04/05 05:35:29;;;;;;;22.80;9.10;;;;;;;3.94;89.33;97255.20;2240431;79;21476;-61
2022/04/05 05:38:31;;;;;;;26.35;11.10;;;;;;;3.97;89.46;97251.13;2244515;79;20993;-60
2022/04/05 05:41:32;;;;;;;23.25;10.15;;;;;;;4.06;88.63;97242.78;2233809;79;21079;-60
2022/04/05 05:44:33;;;;;;;25.35;10.48;;;;;;;4.07;87.62;97231.48;2242682;79;20997;-60
2022/04/05 05:47:35;;;;;;;24.40;10.65;;;;;;;4.16;87.90;97240.00;2241502;79;20998;-60
2022/04/05 05:50:37;;;;;;;22.93;9.28;;;;;;;4.07;89.90;97236.67;2242668;79;21031;-60
2022/04/05 05:53:38;;;;;;;22.50;9.10;;;;;;;4.09;89.34;97240.47;2243734;79;21000;-60
2022/04/05 05:56:39;;;;;;;24.45;9.70;;;;;;;4.12;89.69;97258.00;2238421;79;21468;-60
2022/04/05 05:59:41;;;;;;;25.57;11.00;;;;;;;4.11;90.33;97249.84;2237106;79;20989;-60
2022/04/05 06:02:43;;;;;;;23.12;10.00;;;;;;;4.15;90.20;97258.26;2241486;79;21708;-60
2022/04/05 06:05:45;;;;;;;24.50;10.35;;;;;;;4.15;90.66;97281.62;2243217;79;21012;-60
2022/04/05 06:08:47;;;;;;;23.10;9.25;;;;;;;4.19;90.28;97249.84;2240440;79;21040;-60
2022/04/05 06:11:48;;;;;;;22.73;9.50;;;;;;;4.14;91.32;97283.39;2228880;79;20979;-60
2022/04/05 06:14:50;;;;;;;22.75;9.33;;;;;;;4.31;90.15;97284.98;2242256;79;21523;-60
2022/04/05 06:17:52;;;;;;;25.85;10.40;;;;;;;4.37;89.62;97244.84;2240070;79;21090;-60
2022/04/05 06:20:53;;;;;;;23.47;10.23;;;;;;;4.25;90.39;97268.93;2238854;79;21133;-60
2022/04/05 06:23:55;;;;;;;23.60;9.93;;;;;;;4.28;90.36;97265.70;2241308;79;20957;-60
2022/04/05 06:26:56;;;;;;;22.95;9.75;;;;;;;4.30;91.48;97286.38;2237542;79;20996;-60
2022/04/05 06:29:58;;;;;;;23.10;10.38;;;;;;;4.24;91.67;97296.66;2237204;79;21511;-60
2022/04/05 06:32:59;;;;;;;27.73;12.90;;;;;;;4.33;91.35;97274.03;2242899;79;20989;-60
2022/04/05 06:36:01;;;;;;;25.72;12.20;;;;;;;4.47;91.04;97259.39;2241070;79;21103;-59
2022/04/05 06:39:02;;;;;;;23.57;9.57;;;;;;;4.48;90.12;97277.92;2240933;79;21009;-60
2022/04/05 06:42:03;;;;;;;22.62;9.43;;;;;;;4.49;90.76;97279.13;2238082;79;21040;-60
2022/04/05 06:45:06;;;;;;;23.42;10.43;;;;;;;4.40;91.65;97276.27;2244055;79;20988;-60
2022/04/05 06:48:09;;;;;;;;;;;;;;;4.53;90.91;97269.40;2242995;79;21931;-60
2022/04/05 06:51:10;;;;;;;23.52;9.95;;;;;;;4.67;90.96;97277.65;2242034;79;20162;-60
2022/04/05 06:54:12;;;;;;;22.48;9.23;;;;;;;4.64;90.18;97286.90;2240399;79;21031;-60
2022/04/05 06:57:13;;;;;;;21.73;8.40;;;;;;;4.92;88.06;97273.52;2235752;79;21020;-60
2022/04/05 07:00:17;;;;;;;22.27;9.90;;;;;;;4.87;89.27;97289.41;2242598;78;21064;-60
2022/04/05 07:03:18;;;;;;;23.25;9.83;;;;;;;5.02;89.10;97308.38;2242850;79;20973;-60
2022/04/05 07:06:20;;;;;;;23.05;9.28;;;;;;;5.03;88.11;97290.09;2239623;79;21036;-60
2022/04/05 07:09:22;;;;;;;24.10;9.95;;;;;;;5.15;88.00;97292.86;2237229;79;21582;-60
2022/04/05 07:12:24;;;;;;;22.62;9.03;;;;;;;5.19;87.81;97299.53;2233887;79;21017;-60
2022/04/05 07:15:26;;;;;;;23.45;9.80;;;;;;;5.01;87.67;97306.70;2244607;79;21459;-60
2022/04/05 07:18:27;;;;;;;22.70;9.95;;;;;;;5.05;88.66;97306.06;2234782;79;20980;-60
2022/04/05 07:21:29;;;;;;;21.47;8.57;;;;;;;5.27;87.58;97299.03;2241433;79;21000;-60
2022/04/05 07:24:30;;;;;;;22.48;8.78;;;;;;;5.17;87.05;97294.43;2243129;79;21332;-60
2022/04/05 07:27:32;;;;;;;22.70;9.05;;;;;;;5.27;89.13;97297.28;2245137;79;21016;-60
2022/04/05 07:30:34;;;;;;;23.55;9.65;;;;;;;5.50;87.72;97294.50;2238508;78;21019;-60
2022/04/05 07:33:36;;;;;;;22.20;9.03;;;;;;;5.47;86.54;97301.17;2275226;78;21041;-60
2022/04/05 07:36:37;;;;;;;25.48;10.53;;;;;;;5.46;88.69;97306.48;2276571;78;21524;-60
2022/04/05 07:39:40;;;;;;;22.98;9.48;;;;;;;5.56;87.17;97320.59;2244958;79;20997;-60
2022/04/05 07:42:42;;;;;;;21.97;9.00;;;;;;;5.47;89.03;97318.08;2242922;79;21019;-60
2022/04/05 07:45:44;;;;;;;20.32;7.40;;;;;;;5.49;88.89;97318.84;2232454;79;21008;-60
2022/04/05 07:48:47;;;;;;;;;;;;;;;5.47;87.32;97295.98;2239451;79;20965;-60
2022/04/05 07:51:48;;;;;;;20.65;7.85;;;;;;;5.56;87.77;97316.69;2238399;79;20101;-60
2022/04/05 07:54:50;;;;;;;20.57;7.78;;;;;;;5.58;87.45;97321.78;2232775;78;21012;-60
2022/04/05 07:57:52;;;;;;;21.50;8.45;;;;;;;5.61;88.97;97321.58;2241883;79;20974;-61
2022/04/05 08:00:53;;;;;;;19.63;7.47;;;;;;;5.70;88.52;97339.18;2234370;79;21012;-60
2022/04/05 08:03:55;;;;;;;19.85;7.42;;;;;;;5.67;89.19;97328.98;2237370;79;21205;-60
2022/04/05 08:06:56;;;;;;;22.65;9.53;;;;;;;5.72;87.35;97319.13;2231795;79;20998;-60
2022/04/05 08:09:58;;;;;;;19.45;7.25;;;;;;;5.84;90.58;97307.06;2240715;78;21464;-60
2022/04/05 08:13:00;;;;;;;22.53;8.90;;;;;;;5.92;86.59;97349.04;2241168;79;20997;-60
2022/04/05 08:16:01;;;;;;;25.43;9.63;;;;;;;5.93;87.67;97336.85;2241698;79;21801;-59
2022/04/05 08:19:04;;;;;;;25.75;10.30;;;;;;;5.98;86.74;97329.14;2242503;79;21015;-60
2022/04/05 08:22:08;;;;;;;;;;;;;;;6.04;85.88;97342.22;2242064;79;21016;-60
2022/04/05 08:25:09;;;;;;;23.10;8.98;;;;;;;6.04;85.09;97340.91;2240735;79;20090;-60
2022/04/05 08:28:11;;;;;;;23.95;8.80;;;;;;;6.10;86.02;97335.77;2243178;79;20989;-60
2022/04/05 08:31:13;;;;;;;22.03;8.23;;;;;;;6.31;85.30;97333.52;2237771;79;21111;-60
2022/04/05 08:34:14;;;;;;;18.77;6.40;;;;;;;6.31;85.30;97333.52;2242498;79;21523;-60
2022/04/05 08:37:16;;;;;;;19.15;6.40;;;;;;;6.20;83.24;97346.76;2238413;79;21025;-60
2022/04/05 08:40:18;;;;;;;19.40;6.10;;;;;;;6.14;83.91;97343.75;2241184;79;21001;-60
2022/04/05 08:43:19;;;;;;;18.45;6.22;;;;;;;6.16;85.21;97366.15;2242011;79;21812;-60
2022/04/05 08:46:21;;;;;;;18.82;5.72;;;;;;;6.33;83.40;97322.03;2241233;79;21019;-60
2022/04/05 08:49:23;;;;;;;21.15;6.53;;;;;;;6.24;83.56;97370.84;2240154;79;21534;-60
2022/04/05 08:52:25;;;;;;;16.33;5.00;;;;;;;6.15;84.08;97359.27;2238786;79;21076;-60
2022/04/05 08:55:26;;;;;;;17.62;5.25;;;;;;;6.04;84.23;97355.23;2244647;79;21515;-60
2022/04/05 08:58:28;;;;;;;19.07;5.85;;;;;;;5.95;85.80;97381.81;2224584;79;21095;-60
2022/04/05 09:01:30;;;;;;;21.93;6.93;;;;;;;6.09;85.80;97386.16;2226071;79;21609;-60
2022/04/05 09:04:31;;;;;;;17.13;5.27;;;;;;;6.02;86.54;97385.27;2245331;79;21210;-60
2022/04/05 09:07:33;;;;;;;19.40;6.05;;;;;;;6.07;84.51;97395.37;2235924;79;21040;-61
2022/04/05 09:10:34;;;;;;;19.83;5.93;;;;;;;5.77;86.66;97385.16;2241697;79;21016;-60
2022/04/05 09:13:36;;;;;;;19.52;5.72;;;;;;;5.93;87.68;97376.71;2237339;79;21262;-60
2022/04/05 09:16:37;;;;;;;18.55;5.30;;;;;;;5.99;87.46;97369.86;2237822;79;21479;-60
2022/04/05 09:19:42;;;;;;;18.98;5.45;;;;;;;5.99;89.57;97391.98;2241668;78;20997;-60
2022/04/05 09:22:42;;;;;;;21.15;6.42;;;;;;;6.03;87.00;97379.14;2206052;79;20969;-60
2022/04/05 09:25:45;;;;;;;21.52;7.33;;;;;;;5.93;88.60;97396.71;2241639;79;21008;-60
2022/04/05 09:28:47;;;;;;;20.43;6.15;;;;;;;6.22;89.23;97403.94;2244434;79;21555;-60
2022/04/05 09:31:48;;;;;;;17.37;5.47;;;;;;;6.29;87.73;97375.73;2243115;79;21024;-60
2022/04/05 09:34:50;;;;;;;23.10;7.47;;;;;;;6.23;88.07;97386.94;2241835;79;21029;-60
2022/04/05 09:37:51;;;;;;;16.85;5.28;;;;;;;6.29;88.73;97401.29;2244795;79;22010;-60
2022/04/05 09:40:53;;;;;;;14.30;4.87;;;;;;;6.30;87.82;97403.45;2233244;79;21031;-60
2022/04/05 09:43:54;;;;;;;17.73;5.55;;;;;;;6.37;86.68;97423.77;2241912;79;21016;-60
2022/04/05 09:46:56;;;;;;;20.37;6.43;;;;;;;6.51;88.15;97405.10;2241217;79;20998;-60
2022/04/05 09:50:01;;;;;;;16.52;4.70;;;;;;;6.53;88.29;97407.94;2246132;78;21235;-60
2022/04/05 09:53:01;;;;;;;19.12;6.10;;;;;;;6.41;85.53;97420.50;2214356;79;20997;-59
2022/04/05 09:56:02;;;;;;;14.45;4.80;;;;;;;6.45;86.27;97424.58;2240432;79;21043;-60
2022/04/05 09:59:04;;;;;;;16.07;4.85;;;;;;;6.29;86.46;97421.30;2238054;79;21487;-60
2022/04/05 10:02:06;;;;;;;17.77;5.83;;;;;;;6.32;86.40;97425.00;2240368;79;20989;-61
2022/04/05 10:05:09;;;;;;;21.90;6.72;;;;;;;6.34;86.62;97427.05;2238588;79;21038;-60
2022/04/05 10:08:11;;;;;;;19.85;6.45;;;;;;;6.39;87.05;97416.70;2240788;78;21023;-60
2022/04/05 10:11:13;;;;;;;17.92;5.80;;;;;;;6.33;86.38;97427.50;2232853;79;21558;-60
2022/04/05 10:14:14;;;;;;;19.85;6.35;;;;;;;6.29;86.35;97429.11;2234020;79;21004;-60
2022/04/05 10:17:16;;;;;;;15.20;5.03;;;;;;;6.29;87.57;97415.61;2243317;79;21528;-60
2022/04/05 10:20:18;;;;;;;18.00;5.33;;;;;;;6.31;85.63;97406.42;2236494;79;20969;-60
2022/04/05 10:23:20;;;;;;;17.77;5.60;;;;;;;6.14;86.03;97411.44;2238866;79;21013;-60
2022/04/05 10:26:24;;;;;;;17.30;5.45;;;;;;;6.09;87.48;97433.84;2236712;79;21024;-60
2022/04/05 10:29:25;;;;;;;20.90;6.90;;;;;;;6.07;88.55;97413.59;2225090;79;20980;-60
2022/04/05 10:32:27;;;;;;;21.30;7.30;;;;;;;6.20;88.77;97449.60;2251043;79;21533;-60
2022/04/05 10:35:28;;;;;;;25.90;9.58;;;;;;;6.43;88.11;97449.88;2278752;77;21020;-60
2022/04/05 10:38:30;;;;;;;20.05;6.33;;;;;;;6.61;88.34;97441.31;2279315;77;21051;-60
2022/04/05 10:41:31;;;;;;;17.90;6.03;;;;;;;6.82;86.70;97439.02;2284048;77;20981;-61
2022/04/05 10:44:33;;;;;;;19.00;6.87;;;;;;;6.97;85.92;97444.12;2242419;78;21016;-61
2022/04/05 10:47:34;;;;;;;21.00;6.63;;;;;;;7.21;85.68;97432.48;2242648;78;21110;-59
2022/04/05 10:50:36;;;;;;;17.02;5.35;;;;;;;7.49;84.54;97434.00;2237822;79;20976;-60
2022/04/05 10:53:38;;;;;;;16.82;5.50;;;;;;;7.67;80.25;97442.77;2243634;79;21538;-61
2022/04/05 10:56:40;;;;;;;;;;;;;;;7.67;79.96;97450.59;2242448;79;20969;-61
2022/04/05 10:59:41;;;;;;;16.65;5.22;;;;;;;7.28;78.98;97479.36;2238786;79;20121;-61
2022/04/05 11:02:43;;;;;;;16.70;5.60;;;;;;;7.02;80.56;97476.77;2241482;79;20985;-60
2022/04/05 11:05:45;;;;;;;19.57;6.40;;;;;;;6.81;82.06;97481.67;2241729;79;21052;-60
2022/04/05 11:08:46;;;;;;;19.40;6.00;;;;;;;6.73;83.73;97479.56;2240430;79;21079;-60
2022/04/05 11:11:48;;;;;;;19.02;6.10;;;;;;;6.63;84.75;97475.08;2243315;79;21644;-60
2022/04/05 11:14:50;;;;;;;22.62;7.15;;;;;;;6.51;88.23;97465.84;2237964;79;21102;-59
2022/04/05 11:17:51;;;;;;;21.00;6.80;;;;;;;6.76;87.86;97481.14;2239937;79;21000;-61
2022/04/05 11:20:54;;;;;;;22.25;7.80;;;;;;;6.91;86.38;97483.17;2243508;79;20961;-60
2022/04/05 11:23:56;;;;;;;20.23;6.62;;;;;;;7.09;87.07;97473.28;2244141;79;21017;-60
2022/04/05 11:26:57;;;;;;;19.48;6.30;;;;;;;7.20;84.36;97481.69;2243672;79;21043;-60
2022/04/05 11:29:59;;;;;;;19.70;6.55;;;;;;;7.31;84.43;97471.32;2230603;79;21090;-60
2022/04/05 11:33:00;;;;;;;18.73;5.97;;;;;;;7.70;80.80;97481.23;2243510;79;21028;-60
2022/04/05 11:36:02;;;;;;;17.37;6.00;;;;;;;7.89;80.46;97471.63;2244725;79;21051;-60
2022/04/05 11:39:04;;;;;;;19.55;6.20;;;;;;;7.90;79.94;97466.77;2235494;79;21570;-60
2022/04/05 11:42:06;;;;;;;20.80;7.10;;;;;;;8.12;81.26;97473.05;2243668;79;20988;-60
2022/04/05 11:45:07;;;;;;;18.15;5.25;;;;;;;8.20;78.66;97469.87;2242285;79;21012;-60
2022/04/05 11:48:09;;;;;;;19.75;5.95;;;;;;;8.04;75.59;97467.55;2242237;78;21015;-60
2022/04/05 11:51:10;;;;;;;17.75;5.83;;;;;;;7.63;76.14;97482.13;2240842;79;20989;-60
2022/04/05 11:54:11;;;;;;;21.35;6.45;;;;;;;7.32;78.78;97489.95;2237119;79;21001;-60
2022/04/05 11:57:13;;;;;;;22.13;7.17;;;;;;;7.23;79.71;97495.81;2240097;79;21472;-60
2022/04/05 12:00:14;;;;;;;20.32;6.12;;;;;;;7.06;80.91;97489.14;2232562;79;21004;-60
2022/04/05 12:03:16;;;;;;;21.10;7.62;;;;;;;7.04;80.97;97482.73;2237683;78;21502;-60
2022/04/05 12:06:17;;;;;;;19.32;6.58;;;;;;;6.86;82.77;97476.97;2227134;79;21019;-61
2022/04/05 12:09:19;;;;;;;19.50;6.50;;;;;;;6.76;84.48;97491.08;2243114;79;21501;-60
2022/04/05 12:12:21;;;;;;;19.67;6.60;;;;;;;6.96;84.54;97507.17;2241276;79;21024;-60
2022/04/05 12:15:24;;;;;;;19.30;7.50;;;;;;;6.94;84.39;97519.48;2273748;78;21553;-60
2022/04/05 12:18:28;;;;;;;22.27;9.00;;;;;;;7.02;86.75;97492.89;2215781;79;21263;-60
2022/04/05 12:21:30;;;;;;;21.48;6.80;;;;;;;7.24;86.73;97492.25;2244646;79;21099;-60
2022/04/05 12:24:31;;;;;;;24.20;8.88;;;;;;;7.37;85.24;97486.57;2272568;77;21012;-60
2022/04/05 12:27:35;;;;;;;24.60;9.35;;;;;;;7.29;88.96;97488.86;2215703;79;21035;-61
2022/04/05 12:30:36;;;;;;;26.40;10.38;;;;;;;7.42;87.15;97510.55;2237597;79;21028;-60
2022/04/05 12:33:38;;;;;;;21.85;8.70;;;;;;;7.53;87.87;97502.44;2234343;79;20990;-60
2022/04/05 12:36:39;;;;;;;27.82;9.45;;;;;;;7.29;86.09;97507.95;2236438;79;21492;-60
2022/04/05 12:39:41;;;;;;;25.97;10.43;;;;;;;7.31;87.58;97504.41;2237440;79;20996;-60
2022/04/05 12:42:42;;;;;;;23.60;8.35;;;;;;;7.29;86.53;97507.13;2238738;79;21482;-60
2022/04/05 12:45:44;;;;;;;22.15;7.25;;;;;;;7.28;86.68;97511.52;2239419;79;21011;-60
2022/04/05 12:48:47;;;;;;;19.17;6.77;;;;;;;7.08;86.21;97527.22;2241103;79;21000;-60
2022/04/05 12:51:48;;;;;;;21.35;7.17;;;;;;;7.06;83.46;97507.39;2245580;79;21080;-60
2022/04/05 12:54:50;;;;;;;19.20;6.20;;;;;;;7.13;85.93;97529.50;2240426;79;21516;-60
2022/04/05 12:57:51;;;;;;;21.15;7.70;;;;;;;7.16;86.77;97543.63;2241820;79;20953;-60
2022/04/05 13:00:53;;;;;;;20.43;6.22;;;;;;;7.17;88.00;97525.75;2239558;79;21568;-60
2022/04/05 13:03:54;;;;;;;19.53;6.40;;;;;;;7.23;86.96;97526.63;2235725;79;20980;-60
2022/04/05 13:07:00;;;;;;;16.75;5.22;;;;;;;7.55;85.09;97518.84;2239365;79;21112;-60
2022/04/05 13:09:59;;;;;;;14.90;4.42;;;;;;;7.91;82.85;97520.62;2214641;78;21017;-60
2022/04/05 13:13:01;;;;;;;14.10;4.00;;;;;;;8.30;79.38;97521.35;2244384;79;20996;-60
2022/04/05 13:16:03;;;;;;;11.63;3.17;;;;;;;8.31;78.43;97523.00;2241831;79;21582;-60
2022/04/05 13:19:04;;;;;;;9.95;3.12;;;;;;;8.24;77.00;97503.48;2224848;79;21024;-61
2022/04/05 13:22:05;;;;;;;12.85;3.52;;;;;;;8.18;76.09;97513.56;2236115;79;21023;-60
2022/04/05 13:25:07;;;;;;;15.90;4.45;;;;;;;8.20;77.30;97532.08;2241665;79;21380;-60
2022/04/05 13:28:09;;;;;;;14.13;4.33;;;;;;;8.30;77.88;97525.27;2239944;79;21072;-60
2022/04/05 13:31:10;;;;;;;15.75;4.35;;;;;;;8.53;75.96;97520.16;2225665;79;20983;-61
2022/04/05 13:34:11;;;;;;;17.65;4.65;;;;;;;8.64;75.41;97521.99;2236820;79;20997;-60
2022/04/05 13:37:13;;;;;;;17.62;4.78;;;;;;;8.97;74.61;97519.13;2238343;79;21083;-60
2022/04/05 13:40:14;;;;;;;16.25;4.60;;;;;;;9.34;74.72;97521.56;2236985;79;21555;-60
2022/04/05 13:43:16;;;;;;;17.62;4.97;;;;;;;9.66;71.82;97520.36;2236769;79;20977;-61
2022/04/05 13:46:18;;;;;;;17.82;4.67;;;;;;;9.96;69.72;97518.09;2242822;79;21507;-61
2022/04/05 13:49:20;;;;;;;13.55;4.35;;;;;;;10.07;67.96;97524.63;2243076;79;21087;-60
2022/04/05 13:52:23;;;;;;;16.97;4.62;;;;;;;10.13;66.68;97515.41;2244394;79;21498;-60
2022/04/05 13:55:24;;;;;;;17.25;4.45;;;;;;;10.31;68.71;97520.48;2272699;77;20955;-61
2022/04/05 13:58:26;;;;;;;15.60;4.13;;;;;;;10.52;64.57;97526.31;2281690;77;21527;-61
2022/04/05 14:01:27;;;;;;;14.18;4.00;;;;;;;10.60;66.90;97516.01;2284036;77;20961;-61
2022/04/05 14:04:28;;;;;;;15.68;4.37;;;;;;;10.57;66.18;97517.58;2281360;77;20988;-61
2022/04/05 14:07:30;;;;;;;17.77;4.60;;;;;;;10.80;64.83;97513.55;2277817;78;21061;-61
2022/04/05 14:10:31;;;;;;;15.78;4.42;;;;;;;10.58;65.53;97511.38;2280039;77;20973;-61
2022/04/05 14:13:33;;;;;;;15.25;4.33;;;;;;;10.89;66.06;97500.50;2279840;77;21491;-61